Mercer County Airport
KBLF : rendu visible

Aérodrome :











RETROUVEZ-NOUS SUR...

 
LOGIN :

S'inscrire | Disclaimer

   EN    FR    IT 

 









Légende :    VFR   VFR Marginal   IFR   IFR Intensif   IFR Très Intensif
Visi : 
Plafond : 
>= 8 km
>= 3000ft
5 à 8 km
1000 à 3000 ft
1500m à 5 km
500 à 1000 ft
800 à 1500m
200 à 500 ft
< 800m
< 200 ft
Symboles :   Orages  Brouillard  Fortes neiges  Fortes précipitations  Vent > 20 kt






- Altitude de l'aérodrome : 2857 ft
- Code IATA : BLF


KBLF - Mercer County

DERNIER METAR :
  • 081252Z AUTO 26005KT 10SM OVC013 14/12 A2985 RMK AO2 SLP082 T01440122 TSNO

METARs EXPIRÉS :
  • 081227Z AUTO 27010KT 10SM OVC014 14/12 A2984 RMK AO2 T01440122 TSNO
  • 081152Z AUTO 26013G18KT 10SM BKN015 BKN044 14/12 A2982 RMK AO2 SLP071 T01440122 10156 20144 51010 TSNO
  • 081127Z AUTO 25012KT 10SM FEW014 SCT028 BKN047 14/13 A2981 RMK AO2 T01440128 TSNO
  • 081114Z AUTO 26014G20KT 10SM SCT014 BKN020 OVC047 14/13 A2981 RMK AO2 T01440128 TSNO
  • 081052Z AUTO 28009G16KT 10SM BKN014 OVC021 15/13 A2982 RMK AO2 SLP068 T01500128 TSNO
  • 080952Z AUTO 27009G16KT 10SM OVC014 14/13 A2980 RMK AO2 SLP063 T01440128 TSNO

TAF KBLF
Valide du 08 à 12h jusqu'au 09 à 12h UTC


081120Z 0812/0912 28010G25KT P6SM VCSH OVC013
TEMPO 0813/0815 5SM -SHRA BR OVC010
FM081500 27011G21KT P6SM VCSH OVC021
FM081800 27009KT P6SM VCTS BKN025CB OVC100
FM082300 24010G20KT P6SM SCT025 BKN150
FM090900 28015G30KT 4SM -TSRA BR BKN015 OVC035CB



MET'MAP, la Météo Aéronautique d'un coup d'oeil ! - Copyright ORBIFLY Décembre 2007 - Disclaimer

ORBIFLY MET'MAP TEAM :

Programmation & Développement : Alexandra Zaïnal
Sur une idée originale de : Baudouin d'Aumeries
Assistance à la programmation : Marc-Olivier Méhu
Soutien technique & logistique : Manuel Goepfert

Contact : metmap@orbifly.com




SOURCES & CREDITS :

   NOAA       Earth
Advisory